Time;durP1;ratioP1;P1;durP2;ratioP2;P2;SDS_P1;SDS_P2;PMS_P1;PMS_P2;Temp;Humidity;BMP_temperature;BMP_pressure;BME280_temperature;BME280_humidity;BME280_pressure;Samples;Min_cycle;Max_cycle;Signal;HPM_P1;HPM_P2
2022/08/23 00:00:32;;;;;;;3.67;3.37;;;19.10;72.90;;;;;;6249138;23;20436;-48
2022/08/23 00:02:58;;;;;;;4.13;3.73;;;19.00;73.50;;;;;;6249090;23;20402;-48
2022/08/23 00:05:24;;;;;;;3.97;3.67;;;19.00;73.90;;;;;;6248860;23;20393;-48
2022/08/23 00:07:50;;;;;;;5.03;3.90;;;19.00;74.00;;;;;;6248594;23;20414;-50
2022/08/23 00:10:16;;;;;;;4.73;3.57;;;19.00;74.60;;;;;;6248790;23;20151;-47
2022/08/23 00:12:43;;;;;;;3.90;3.60;;;19.00;73.90;;;;;;6248336;23;20149;-50
2022/08/23 00:15:10;;;;;;;6.33;3.60;;;19.00;74.00;;;;;;6248679;23;20817;-51
2022/08/23 00:17:36;;;;;;;4.30;3.40;;;19.00;73.60;;;;;;6248767;23;20358;-49
2022/08/23 00:20:05;;;;;;;3.80;3.40;;;19.00;74.50;;;;;;6248725;23;20432;-49
2022/08/23 00:22:31;;;;;;;4.50;3.53;;;19.00;74.80;;;;;;6248723;23;20141;-48
2022/08/23 00:24:56;;;;;;;3.87;3.57;;;19.00;75.00;;;;;;6248819;23;20680;-47
2022/08/23 00:27:22;;;;;;;3.80;3.50;;;19.00;75.00;;;;;;6247992;23;20165;-47
2022/08/23 00:29:50;;;;;;;3.90;3.50;;;19.00;75.10;;;;;;6248783;23;20188;-50
2022/08/23 00:32:20;;;;;;;4.10;3.50;;;19.00;75.00;;;;;;6248840;23;20233;-47
2022/08/23 00:34:45;;;;;;;3.83;3.53;;;19.00;75.00;;;;;;6248893;22;20432;-46
2022/08/23 00:37:12;;;;;;;3.67;3.37;;;19.00;75.00;;;;;;6248770;23;20354;-49
2022/08/23 00:39:39;;;;;;;4.50;3.40;;;19.00;74.80;;;;;;6248869;23;20177;-51
2022/08/23 00:47:53;;;;;;;4.07;3.53;;;19.00;74.90;;;;;;6247148;23;20414;-50
2022/08/23 00:50:49;;;;;;;5.70;3.50;;;18.90;74.80;;;;;;6248936;23;20398;-50
2022/08/23 00:53:28;;;;;;;4.60;4.07;;;18.90;75.20;;;;;;6232637;23;20451;-47
2022/08/23 00:55:58;;;;;;;5.97;4.10;;;18.90;75.30;;;;;;6222231;23;20502;-52
2022/08/23 00:58:24;;;;;;;4.03;3.53;;;18.90;75.70;;;;;;6247802;23;20374;-49
2022/08/23 01:00:53;;;;;;;4.33;4.00;;;18.90;75.80;;;;;;6248685;23;20425;-47
2022/08/23 01:03:21;;;;;;;3.83;3.43;;;18.80;76.00;;;;;;6247964;23;20392;-49
2022/08/23 01:05:56;;;;;;;4.33;3.93;;;18.80;76.00;;;;;;6249043;23;20383;-48
2022/08/23 01:08:25;;;;;;;3.83;3.53;;;18.80;76.10;;;;;;6249172;23;20637;-51
2022/08/23 01:10:59;;;;;;;3.80;3.50;;;18.80;76.50;;;;;;6247875;23;20469;-51
2022/08/23 01:13:29;;;;;;;4.70;3.97;;;18.80;77.00;;;;;;6249932;23;20367;-51
2022/08/23 01:15:58;;;;;;;4.13;3.73;;;18.80;76.20;;;;;;6249092;23;20505;-48
2022/08/23 01:18:25;;;;;;;5.07;3.70;;;18.70;76.20;;;;;;6249175;23;20374;-48
2022/08/23 01:21:06;;;;;;;3.47;3.17;;;18.70;76.30;;;;;;6249757;23;20834;-47
2022/08/23 01:23:48;;;;;;;5.23;3.93;;;18.70;76.30;;;;;;6249389;23;20874;-47
2022/08/23 01:26:15;;;;;;;3.60;3.30;;;18.70;76.40;;;;;;6249722;23;20717;-46
2022/08/23 01:28:41;;;;;;;6.90;3.33;;;18.70;76.30;;;;;;6249834;23;20360;-51
2022/08/23 01:31:07;;;;;;;4.00;3.70;;;18.70;76.40;;;;;;6250737;23;20389;-48
2022/08/23 01:33:35;;;;;;;3.40;3.10;;;18.70;76.40;;;;;;6248802;23;20428;-48
2022/08/23 01:36:01;;;;;;;3.83;3.40;;;18.60;76.30;;;;;;6251107;23;20387;-48
2022/08/23 01:38:26;;;;;;;3.93;3.57;;;18.60;76.30;;;;;;6223275;23;20404;-51
2022/08/23 01:40:52;;;;;;;4.53;3.63;;;18.60;77.10;;;;;;6250194;23;20425;-49
2022/08/23 01:43:20;;;;;;;4.20;3.80;;;18.60;76.50;;;;;;6248724;23;20206;-46
2022/08/23 01:45:47;;;;;;;3.93;3.57;;;18.60;76.40;;;;;;6249785;23;20217;-50
2022/08/23 01:48:13;;;;;;;4.23;3.37;;;18.60;76.60;;;;;;6249794;23;20786;-47
2022/08/23 01:50:39;;;;;;;3.80;3.50;;;18.50;76.80;;;;;;6249004;23;20416;-47
2022/08/23 01:53:05;;;;;;;4.93;3.57;;;18.50;77.00;;;;;;6248729;23;20361;-47
2022/08/23 01:56:23;;;;;;;4.10;3.70;;;18.50;77.00;;;;;;6250198;23;20528;-51
2022/08/23 01:58:49;;;;;;;3.10;2.80;;;18.50;77.20;;;;;;6250263;22;20755;-52
2022/08/23 02:01:17;;;;;;;3.47;3.17;;;18.40;77.30;;;;;;6249757;23;20487;-51
2022/08/23 02:03:44;;;;;;;4.83;3.73;;;18.40;77.50;;;;;;6250008;23;20342;-51
2022/08/23 02:06:10;;;;;;;4.50;4.10;;;18.30;77.40;;;;;;6250218;23;20453;-48
2022/08/23 02:11:22;;;;;;;4.53;3.70;;;18.30;78.10;;;;;;6250522;23;20444;-50
2022/08/23 02:13:49;;;;;;;3.93;3.47;;;18.30;78.30;;;;;;6249711;23;20374;-45
2022/08/23 02:16:29;;;;;;;4.43;3.50;;;18.30;78.60;;;;;;6249319;23;20394;-48
2022/08/23 02:18:56;;;;;;;4.97;3.83;;;18.30;78.70;;;;;;6248438;23;20363;-51
2022/08/23 02:21:22;;;;;;;3.40;3.10;;;18.20;78.50;;;;;;6250115;23;20422;-50
2022/08/23 02:23:50;;;;;;;3.90;3.57;;;18.20;78.70;;;;;;6249734;23;20388;-49
2022/08/23 02:26:17;;;;;;;4.07;3.20;;;18.20;78.90;;;;;;6249652;23;20389;-52
2022/08/23 02:28:42;;;;;;;3.63;3.33;;;18.20;79.20;;;;;;6249622;23;20389;-48
2022/08/23 02:31:08;;;;;;;3.73;3.33;;;18.10;79.10;;;;;;6248807;23;20422;-50
2022/08/23 02:33:34;;;;;;;3.80;3.50;;;18.10;79.20;;;;;;6248763;23;20202;-54
2022/08/23 02:36:00;;;;;;;4.00;3.60;;;18.10;79.50;;;;;;6248902;23;20182;-48
2022/08/23 02:38:26;;;;;;;5.73;3.73;;;18.00;79.60;;;;;;6248638;23;20138;-50
2022/08/23 02:40:51;;;;;;;3.90;3.60;;;18.00;79.80;;;;;;6249548;23;20430;-49
2022/08/23 02:43:17;;;;;;;3.63;3.33;;;18.00;80.00;;;;;;6248884;23;20390;-47
2022/08/23 02:45:44;;;;;;;3.73;3.47;;;18.00;80.00;;;;;;6249511;22;20423;-51
2022/08/23 02:48:09;;;;;;;3.80;3.50;;;18.00;80.10;;;;;;6248861;23;20444;-49
2022/08/23 02:50:36;;;;;;;4.40;4.00;;;18.00;80.30;;;;;;6248747;23;20415;-50
2022/08/23 02:53:01;;;;;;;5.50;4.07;;;18.00;80.40;;;;;;6248159;23;20137;-47
2022/08/23 02:55:27;;;;;;;4.17;3.73;;;18.00;80.60;;;;;;6249595;23;20389;-47
2022/08/23 02:57:54;;;;;;;4.40;3.80;;;17.90;80.60;;;;;;6248905;23;20172;-47
2022/08/23 03:00:20;;;;;;;4.90;3.90;;;17.90;80.60;;;;;;6248570;23;20438;-51
2022/08/23 03:02:46;;;;;;;3.73;3.43;;;17.90;80.60;;;;;;6249225;23;20472;-51
2022/08/23 03:05:12;;;;;;;4.80;3.97;;;17.90;80.90;;;;;;6248868;23;20635;-50
2022/08/23 03:07:39;;;;;;;4.50;3.47;;;17.80;81.00;;;;;;6247392;23;20768;-50
2022/08/23 03:10:06;;;;;;;4.33;3.60;;;17.80;81.10;;;;;;6248374;23;20386;-49
2022/08/23 03:12:31;;;;;;;4.00;3.60;;;17.80;81.40;;;;;;6249454;23;20361;-54
2022/08/23 03:14:57;;;;;;;4.47;3.60;;;17.80;81.60;;;;;;6249035;23;20929;-48
2022/08/23 03:17:23;;;;;;;4.53;4.13;;;17.80;81.70;;;;;;6249515;23;20484;-46
2022/08/23 03:19:51;;;;;;;3.73;3.43;;;17.80;81.70;;;;;;6249698;23;20203;-48
2022/08/23 03:22:17;;;;;;;4.40;4.00;;;17.70;81.90;;;;;;6247797;23;20663;-51
2022/08/23 03:24:43;;;;;;;5.50;3.67;;;17.70;82.00;;;;;;6247464;23;20403;-53
2022/08/23 03:27:10;;;;;;;4.57;4.17;;;17.70;81.90;;;;;;6246851;23;20372;-51
2022/08/23 03:29:36;;;;;;;4.70;4.30;;;17.70;82.20;;;;;;6246045;23;20400;-53
2022/08/23 03:32:03;;;;;;;4.53;4.03;;;17.70;82.70;;;;;;6247567;23;20366;-47
2022/08/23 03:34:29;;;;;;;4.60;4.20;;;17.60;82.80;;;;;;6246923;23;20492;-49
2022/08/23 03:36:55;;;;;;;5.30;4.07;;;17.60;82.90;;;;;;6247866;23;20354;-47
2022/08/23 03:39:21;;;;;;;4.10;3.80;;;17.60;83.20;;;;;;6247410;23;20814;-51
2022/08/23 03:41:47;;;;;;;4.47;4.00;;;17.60;83.50;;;;;;6248440;22;20174;-49
2022/08/23 03:44:12;;;;;;;4.70;4.20;;;17.60;83.70;;;;;;6247237;23;20628;-52
2022/08/23 03:46:38;;;;;;;4.13;3.60;;;17.60;83.80;;;;;;6248786;23;20144;-48
2022/08/23 03:49:04;;;;;;;5.07;3.80;;;17.60;83.90;;;;;;6247638;23;20135;-47
2022/08/23 03:51:30;;;;;;;4.30;3.90;;;17.50;83.70;;;;;;6247247;23;20160;-53
2022/08/23 03:53:56;;;;;;;4.37;3.97;;;17.50;83.70;;;;;;6247706;23;20656;-51
2022/08/23 03:56:28;;;;;;;4.77;4.40;;;17.50;83.90;;;;;;6249248;22;20392;-49
2022/08/23 03:58:55;;;;;;;4.47;4.10;;;17.50;84.00;;;;;;6248387;23;20365;-48
2022/08/23 04:01:21;;;;;;;4.77;3.97;;;17.50;84.20;;;;;;6247893;23;20433;-53
2022/08/23 04:03:47;;;;;;;6.00;4.40;;;17.50;84.30;;;;;;6247165;23;20352;-47
2022/08/23 04:06:14;;;;;;;4.17;3.60;;;17.40;84.30;;;;;;6247226;23;20381;-50
2022/08/23 04:08:41;;;;;;;4.40;3.33;;;17.40;84.20;;;;;;6246159;23;20363;-49
2022/08/23 04:11:07;;;;;;;4.73;4.00;;;17.40;84.10;;;;;;6247061;23;20679;-46
2022/08/23 04:13:33;;;;;;;5.10;4.13;;;17.40;84.10;;;;;;6245575;23;20390;-52
2022/08/23 04:16:02;;;;;;;3.70;3.40;;;17.40;84.20;;;;;;6246018;23;20626;-52
2022/08/23 04:18:30;;;;;;;4.53;4.13;;;17.40;84.20;;;;;;6245534;23;20356;-53
2022/08/23 04:20:57;;;;;;;4.70;4.30;;;17.40;84.40;;;;;;6246206;23;20475;-47
2022/08/23 04:23:24;;;;;;;4.20;3.83;;;17.30;84.40;;;;;;6245618;23;20419;-50
2022/08/23 04:25:50;;;;;;;4.50;4.10;;;17.30;84.60;;;;;;6247128;23;20377;-48
2022/08/23 04:28:15;;;;;;;4.17;3.77;;;17.30;84.90;;;;;;6245714;23;20806;-48
2022/08/23 04:30:42;;;;;;;7.30;4.80;;;17.30;85.10;;;;;;6246440;23;20207;-54
2022/08/23 04:33:07;;;;;;;4.40;3.90;;;17.30;85.40;;;;;;6246338;23;20147;-54
2022/08/23 04:35:33;;;;;;;4.93;4.30;;;17.30;85.40;;;;;;6245120;23;20433;-55
2022/08/23 04:37:59;;;;;;;4.77;4.30;;;17.30;85.30;;;;;;6246983;23;20434;-54
2022/08/23 04:43:09;;;;;;;4.43;4.03;;;17.50;84.90;;;;;;6248357;23;20161;-55
2022/08/23 04:45:38;;;;;;;3.93;3.63;;;17.50;84.70;;;;;;6248763;23;20424;-57
2022/08/23 04:48:04;;;;;;;5.87;4.43;;;17.50;84.60;;;;;;6250600;23;20143;-52
2022/08/23 04:50:30;;;;;;;4.40;4.00;;;17.60;84.60;;;;;;6251169;23;20387;-56
2022/08/23 04:52:56;;;;;;;5.40;4.33;;;17.60;84.60;;;;;;6249417;23;20368;-56
2022/08/23 04:55:21;;;;;;;4.30;3.93;;;17.60;84.50;;;;;;6249395;23;20139;-56
2022/08/23 04:57:47;;;;;;;4.70;4.30;;;17.60;84.70;;;;;;6250391;23;20209;-54
2022/08/23 05:00:15;;;;;;;4.53;4.13;;;17.60;84.80;;;;;;6249757;23;20166;-55
2022/08/23 05:02:40;;;;;;;3.80;3.50;;;17.60;84.50;;;;;;6248714;23;20126;-54
2022/08/23 05:05:08;;;;;;;4.30;4.00;;;17.60;84.60;;;;;;6248441;23;20818;-53
2022/08/23 05:07:34;;;;;;;5.30;4.47;;;17.70;84.70;;;;;;6246891;23;20367;-55
2022/08/23 05:10:00;;;;;;;5.63;4.33;;;17.70;84.60;;;;;;6246958;23;20361;-53
2022/08/23 05:12:26;;;;;;;5.03;4.60;;;17.70;84.50;;;;;;6247235;23;20840;-54
2022/08/23 05:14:51;;;;;;;4.40;4.10;;;17.80;84.50;;;;;;6247728;23;20724;-55
2022/08/23 05:17:17;;;;;;;6.90;4.27;;;17.80;84.30;;;;;;6247324;23;20542;-54
2022/08/23 05:19:43;;;;;;;5.13;4.73;;;17.80;84.20;;;;;;6247022;23;20656;-56
2022/08/23 05:22:09;;;;;;;4.53;4.13;;;17.90;84.20;;;;;;6248683;23;20390;-53
2022/08/23 05:24:34;;;;;;;5.00;4.53;;;17.90;84.00;;;;;;6248689;23;20158;-54
2022/08/23 05:27:00;;;;;;;4.23;3.83;;;17.90;83.80;;;;;;6249079;23;20595;-55
2022/08/23 05:29:25;;;;;;;4.17;3.87;;;18.00;83.60;;;;;;6249752;23;20173;-55
2022/08/23 05:31:51;;;;;;;4.43;4.03;;;18.00;83.40;;;;;;6249730;23;20238;-55
2022/08/23 05:34:17;;;;;;;5.50;4.67;;;18.10;83.20;;;;;;6245872;23;20201;-53
2022/08/23 05:36:42;;;;;;;5.30;4.20;;;18.20;82.90;;;;;;6248034;23;20153;-54
2022/08/23 05:39:08;;;;;;;8.33;4.70;;;18.30;82.80;;;;;;6247534;23;20466;-50
2022/08/23 05:41:34;;;;;;;4.93;4.53;;;18.30;82.50;;;;;;6244627;23;20263;-50
2022/08/23 05:43:59;;;;;;;5.90;4.20;;;18.40;82.50;;;;;;6217426;23;20177;-56
2022/08/23 05:46:25;;;;;;;5.83;4.67;;;18.50;82.30;;;;;;6245307;23;20154;-56
2022/08/23 05:48:51;;;;;;;3.97;3.67;;;18.50;82.00;;;;;;6244928;23;20403;-53
2022/08/23 05:51:24;;;;;;;4.37;3.97;;;18.60;81.90;;;;;;6244794;23;20411;-54
2022/08/23 05:53:51;;;;;;;3.87;3.57;;;18.70;81.70;;;;;;6245354;23;20486;-55
2022/08/23 05:56:20;;;;;;;4.73;4.23;;;18.80;81.50;;;;;;6245238;23;20386;-54
2022/08/23 05:58:47;;;;;;;6.17;5.13;;;18.90;81.30;;;;;;6248663;23;20368;-53
2022/08/23 06:01:14;;;;;;;5.13;4.57;;;19.00;81.20;;;;;;6249570;23;20433;-53
2022/08/23 06:03:41;;;;;;;5.47;5.03;;;19.00;81.00;;;;;;6246988;23;20353;-55
2022/08/23 06:06:07;;;;;;;18.20;8.07;;;19.10;80.90;;;;;;6247438;23;20389;-54
2022/08/23 06:08:35;;;;;;;12.80;7.57;;;19.20;80.80;;;;;;6246515;23;20756;-57
2022/08/23 06:11:02;;;;;;;9.93;7.10;;;19.30;80.50;;;;;;6248354;23;20543;-51
2022/08/23 06:13:28;;;;;;;6.93;5.60;;;19.40;80.30;;;;;;6248671;23;20770;-56
2022/08/23 06:15:56;;;;;;;5.87;4.70;;;19.50;79.90;;;;;;6246582;23;20391;-51
2022/08/23 06:18:22;;;;;;;6.67;5.97;;;19.60;79.60;;;;;;6246148;23;20362;-55
2022/08/23 06:20:48;;;;;;;6.43;5.47;;;19.70;79.50;;;;;;6245288;23;20466;-55
2022/08/23 06:23:13;;;;;;;7.53;5.40;;;19.80;79.00;;;;;;6246596;23;20354;-54
2022/08/23 06:25:39;;;;;;;6.10;5.50;;;19.90;78.70;;;;;;6244474;23;20389;-54
2022/08/23 06:28:05;;;;;;;6.30;5.70;;;20.00;78.10;;;;;;6244499;23;20277;-54
2022/08/23 06:30:31;;;;;;;6.77;5.90;;;20.10;77.70;;;;;;6246107;23;20155;-53
2022/08/23 06:32:56;;;;;;;5.17;4.73;;;20.30;77.80;;;;;;6246428;23;20148;-56
2022/08/23 06:35:22;;;;;;;6.30;5.80;;;20.40;77.30;;;;;;6246788;23;20192;-56
2022/08/23 06:37:48;;;;;;;7.67;5.37;;;20.50;77.20;;;;;;6249039;23;20461;-61
2022/08/23 06:40:14;;;;;;;6.57;5.90;;;20.60;76.60;;;;;;6245506;23;20566;-55
2022/08/23 06:42:39;;;;;;;6.53;5.97;;;20.70;76.20;;;;;;6247036;23;20877;-55
2022/08/23 06:45:05;;;;;;;7.43;6.73;;;20.70;75.60;;;;;;6245803;23;20155;-53
2022/08/23 06:47:31;;;;;;;7.37;6.20;;;20.80;75.50;;;;;;6246396;23;20144;-56
2022/08/23 06:49:57;;;;;;;6.73;6.07;;;20.80;75.50;;;;;;6248426;23;20741;-55
2022/08/23 06:52:23;;;;;;;6.13;5.53;;;21.00;75.40;;;;;;6247773;23;20164;-56
2022/08/23 06:54:48;;;;;;;6.43;5.80;;;21.10;75.00;;;;;;6246500;23;20448;-54
2022/08/23 06:57:14;;;;;;;6.17;5.67;;;21.20;74.10;;;;;;6248035;23;20153;-55
2022/08/23 06:59:40;;;;;;;6.23;5.73;;;21.30;73.60;;;;;;6246924;23;20176;-54
2022/08/23 07:02:07;;;;;;;6.57;6.07;;;21.40;73.10;;;;;;6247124;23;20410;-55
2022/08/23 07:04:38;;;;;;;5.93;5.43;;;21.60;73.10;;;;;;6248767;23;20215;-57
2022/08/23 07:07:05;;;;;;;6.37;5.77;;;21.70;72.90;;;;;;6246590;23;20395;-55
2022/08/23 07:09:31;;;;;;;6.50;5.73;;;22.00;72.80;;;;;;6248625;23;20368;-57
2022/08/23 07:11:58;;;;;;;6.60;6.00;;;22.20;71.80;;;;;;6249113;23;20387;-56
2022/08/23 07:14:25;;;;;;;6.87;6.27;;;22.30;71.00;;;;;;6249779;23;20364;-55
2022/08/23 07:16:58;;;;;;;7.03;6.43;;;22.50;70.60;;;;;;6249135;23;20380;-57
2022/08/23 07:19:26;;;;;;;6.10;5.60;;;22.70;69.30;;;;;;6248870;23;20811;-56
2022/08/23 07:21:52;;;;;;;6.80;6.20;;;22.90;68.30;;;;;;6247766;23;20483;-55
2022/08/23 07:24:19;;;;;;;5.77;5.27;;;23.00;66.70;;;;;;6249398;23;20391;-55
2022/08/23 07:26:46;;;;;;;6.13;5.53;;;23.10;66.50;;;;;;6249507;23;20345;-56
2022/08/23 07:29:13;;;;;;;5.50;5.10;;;23.20;65.90;;;;;;6249108;23;20474;-58
2022/08/23 07:31:48;;;;;;;5.53;5.07;;;23.40;65.50;;;;;;6247447;23;20358;-58
2022/08/23 07:34:14;;;;;;;4.83;4.43;;;23.60;61.70;;;;;;6248533;23;20467;-56
2022/08/23 07:36:41;;;;;;;5.10;4.60;;;23.70;59.90;;;;;;6249666;23;20352;-55
2022/08/23 07:39:08;;;;;;;5.50;5.00;;;23.80;59.00;;;;;;6247971;23;20421;-56
2022/08/23 07:41:34;;;;;;;5.33;4.83;;;23.90;59.20;;;;;;6248978;23;20411;-54
2022/08/23 07:44:02;;;;;;;4.47;4.07;;;24.10;58.80;;;;;;6249517;23;20438;-58
2022/08/23 07:46:29;;;;;;;4.70;4.07;;;24.10;58.10;;;;;;6249393;23;20360;-55
2022/08/23 07:48:59;;;;;;;4.90;4.40;;;24.30;57.70;;;;;;6247462;23;20446;-55
2022/08/23 07:51:26;;;;;;;4.63;4.33;;;24.50;57.60;;;;;;6247363;23;20379;-56
2022/08/23 07:53:52;;;;;;;4.43;3.80;;;24.60;56.80;;;;;;6247998;23;20458;-54
2022/08/23 07:56:19;;;;;;;5.10;4.60;;;24.90;56.70;;;;;;6246945;23;20399;-55
2022/08/23 07:58:45;;;;;;;3.70;3.40;;;25.00;54.60;;;;;;6247209;23;20161;-54
2022/08/23 08:01:14;;;;;;;5.03;3.60;;;24.90;50.60;;;;;;6248353;23;20414;-53
2022/08/23 08:03:42;;;;;;;4.40;3.87;;;25.00;51.10;;;;;;6248106;23;20232;-54
2022/08/23 08:06:14;;;;;;;4.17;3.77;;;25.10;51.10;;;;;;6249101;23;20348;-53
2022/08/23 08:08:41;;;;;;;5.60;3.90;;;25.40;51.40;;;;;;6249214;23;20765;-57
2022/08/23 08:11:09;;;;;;;5.20;4.23;;;25.70;50.70;;;;;;6248781;23;20392;-54
2022/08/23 08:13:39;;;;;;;4.70;4.20;;;25.80;51.30;;;;;;6249855;23;20398;-52
2022/08/23 08:16:06;;;;;;;4.17;3.87;;;25.90;50.80;;;;;;6248170;23;20422;-52
2022/08/23 08:18:31;;;;;;;5.70;4.10;;;26.20;51.00;;;;;;6247857;23;20380;-53
2022/08/23 08:20:57;;;;;;;5.20;3.93;;;26.30;50.60;;;;;;6220397;23;20447;-53
2022/08/23 08:23:24;;;;;;;5.07;4.07;;;26.60;50.70;;;;;;6247954;23;20165;-54
2022/08/23 08:26:00;;;;;;;3.97;3.67;;;26.80;50.60;;;;;;6249372;23;20349;-50
2022/08/23 08:28:26;;;;;;;5.07;4.30;;;27.10;49.50;;;;;;6248669;22;20703;-54
2022/08/23 08:30:52;;;;;;;4.40;3.87;;;27.10;49.20;;;;;;6249773;23;20360;-52
2022/08/23 08:33:17;;;;;;;4.70;3.90;;;27.40;49.70;;;;;;6247232;23;20823;-54
2022/08/23 08:35:47;;;;;;;4.50;3.73;;;27.90;49.10;;;;;;6222484;23;20804;-54
2022/08/23 08:38:13;;;;;;;3.93;3.63;;;28.30;47.90;;;;;;6249636;23;20387;-54
2022/08/23 08:40:39;;;;;;;4.10;3.70;;;28.70;46.60;;;;;;6249029;23;20402;-54
2022/08/23 08:43:32;;;;;;;4.60;4.10;;;28.90;45.50;;;;;;6248930;23;20142;-51
2022/08/23 08:46:15;;;;;;;5.23;3.93;;;29.20;46.30;;;;;;6246887;23;20366;-51
2022/08/23 08:48:48;;;;;;;4.40;3.87;;;29.40;43.40;;;;;;6246812;23;20379;-52
2022/08/23 08:51:32;;;;;;;7.50;4.10;;;29.40;42.40;;;;;;6243798;23;20676;-50
2022/08/23 08:53:59;;;;;;;5.03;3.70;;;29.30;42.90;;;;;;6244895;23;20400;-54
2022/08/23 08:56:30;;;;;;;3.90;3.60;;;28.90;42.60;;;;;;6245437;23;20373;-51
2022/08/23 08:59:05;;;;;;;4.00;3.60;;;28.60;43.00;;;;;;6219306;23;20684;-54
2022/08/23 09:01:33;;;;;;;3.70;3.40;;;28.70;42.60;;;;;;6218444;23;20419;-52
2022/08/23 09:04:01;;;;;;;4.10;3.80;;;28.90;42.30;;;;;;6218566;23;20389;-54
2022/08/23 09:06:49;;;;;;;5.23;3.57;;;29.00;41.80;;;;;;6245382;23;20388;-54
2022/08/23 09:09:35;;;;;;;4.20;3.40;;;29.20;42.60;;;;;;6244223;23;20384;-54
2022/08/23 09:12:16;;;;;;;3.53;3.23;;;29.20;42.20;;;;;;6245885;23;20761;-51
2022/08/23 09:14:42;;;;;;;3.50;3.20;;;29.50;41.90;;;;;;6245603;23;20379;-53
2022/08/23 09:17:23;;;;;;;4.27;3.13;;;30.10;40.70;;;;;;6244847;23;20388;-57
2022/08/23 09:19:51;;;;;;;3.53;3.30;;;30.30;39.30;;;;;;6246327;23;20146;-53
2022/08/23 09:22:25;;;;;;;3.90;3.13;;;29.90;39.20;;;;;;6247565;23;20636;-53
2022/08/23 09:24:50;;;;;;;3.40;2.80;;;29.80;39.00;;;;;;6243836;23;20355;-55
2022/08/23 09:27:17;;;;;;;3.47;3.17;;;29.90;38.70;;;;;;6244603;23;20350;-53
2022/08/23 09:29:55;;;;;;;3.50;3.03;;;30.00;39.40;;;;;;6247369;23;20143;-56
2022/08/23 09:32:40;;;;;;;3.30;3.00;;;30.40;38.90;;;;;;6248579;23;20397;-56
2022/08/23 09:35:14;;;;;;;4.90;2.90;;;30.90;38.60;;;;;;6241795;23;20838;-54
2022/08/23 09:37:51;;;;;;;4.83;3.00;;;31.40;38.50;;;;;;6245836;23;20340;-54
2022/08/23 09:40:28;;;;;;;3.60;3.30;;;31.40;36.50;;;;;;6247273;23;20426;-56
2022/08/23 09:43:08;;;;;;;5.87;4.13;;;31.50;36.60;;;;;;6246481;23;20373;-55
2022/08/23 09:45:37;;;;;;;3.97;3.03;;;31.70;35.90;;;;;;6244670;23;20353;-54
2022/08/23 09:48:04;;;;;;;3.10;2.80;;;31.30;35.40;;;;;;6247377;23;20489;-56
2022/08/23 09:50:37;;;;;;;3.70;3.40;;;31.20;35.30;;;;;;6246770;23;20331;-56
2022/08/23 09:53:06;;;;;;;3.13;2.90;;;31.00;35.30;;;;;;6247618;23;20355;-50
2022/08/23 09:55:43;;;;;;;4.13;3.10;;;31.40;36.10;;;;;;6244988;23;20455;-46
2022/08/23 09:58:39;;;;;;;3.23;3.03;;;32.00;35.30;;;;;;6246696;23;20359;-45
2022/08/23 10:01:25;;;;;;;4.20;3.80;;;32.70;34.40;;;;;;6246483;23;20442;-46
2022/08/23 10:04:07;;;;;;;3.77;3.47;;;33.10;33.90;;;;;;6245885;23;20735;-45
2022/08/23 10:06:33;;;;;;;5.67;3.20;;;32.90;33.30;;;;;;6246373;23;20364;-45
2022/08/23 10:09:03;;;;;;;3.10;2.80;;;32.40;33.70;;;;;;6247141;23;20351;-48
2022/08/23 10:11:40;;;;;;;3.27;2.97;;;31.80;33.70;;;;;;6247987;23;20141;-45
2022/08/23 10:14:06;;;;;;;4.63;3.20;;;31.90;34.20;;;;;;6246216;23;20929;-46
2022/08/23 10:16:39;;;;;;;4.87;3.43;;;32.20;34.10;;;;;;6247597;23;20408;-47
2022/08/23 10:19:30;;;;;;;3.50;3.20;;;32.30;33.70;;;;;;6241575;23;20160;-48
2022/08/23 10:22:25;;;;;;;5.53;3.57;;;32.50;34.30;;;;;;6244104;23;20405;-49
2022/08/23 10:25:04;;;;;;;4.33;3.37;;;33.10;33.70;;;;;;6239802;23;20413;-49
2022/08/23 10:31:00;;;;;;;4.30;3.50;;;33.90;32.80;;;;;;6244434;23;20342;-49
2022/08/23 10:33:34;;;;;;;3.27;2.97;;;34.20;32.10;;;;;;6246168;23;20653;-45
2022/08/23 10:36:17;;;;;;;3.30;3.00;;;33.80;32.00;;;;;;6246949;23;20371;-49
2022/08/23 10:38:45;;;;;;;4.30;3.53;;;33.60;31.90;;;;;;6247073;23;20642;-47
2022/08/23 10:41:34;;;;;;;5.10;3.20;;;33.50;32.50;;;;;;6248714;23;20430;-46
2022/08/23 10:44:22;;;;;;;3.50;3.20;;;33.30;32.40;;;;;;6247101;23;20688;-45
2022/08/23 10:47:08;;;;;;;3.67;3.37;;;33.10;33.20;;;;;;6246269;23;20395;-46
2022/08/23 10:49:36;;;;;;;4.47;3.13;;;33.30;32.70;;;;;;6248353;23;20777;-46
2022/08/23 10:52:04;;;;;;;3.60;3.30;;;34.10;32.30;;;;;;6246688;23;20335;-48
2022/08/23 10:54:45;;;;;;;4.17;3.57;;;34.50;32.10;;;;;;6245571;23;20406;-49
2022/08/23 10:57:16;;;;;;;5.50;5.00;;;34.50;32.10;;;;;;6243724;23;20346;-49
2022/08/23 10:59:44;;;;;;;3.40;3.10;;;34.60;33.20;;;;;;6241273;23;20492;-46
2022/08/23 11:02:23;;;;;;;3.83;3.50;;;35.20;32.90;;;;;;6239168;23;20375;-45
2022/08/23 11:05:18;;;;;;;3.30;3.00;;;35.80;31.60;;;;;;6239471;23;20368;-46
2022/08/23 11:08:14;;;;;;;3.80;2.90;;;35.40;30.90;;;;;;6240715;23;20650;-48
2022/08/23 11:10:47;;;;;;;3.90;3.23;;;34.70;31.10;;;;;;6223775;23;20375;-48
2022/08/23 11:13:16;;;;;;;3.90;3.20;;;34.40;31.50;;;;;;6240330;23;20365;-48
2022/08/23 11:15:44;;;;;;;3.70;3.40;;;33.90;31.80;;;;;;6243753;23;20390;-45
2022/08/23 11:18:32;;;;;;;3.37;3.07;;;34.10;31.80;;;;;;6245112;23;20378;-49
2022/08/23 11:21:16;;;;;;;3.10;2.80;;;34.80;31.50;;;;;;6245652;22;20393;-44
2022/08/23 11:23:43;;;;;;;4.00;3.00;;;35.00;30.30;;;;;;6246993;23;20356;-45
2022/08/23 11:26:34;;;;;;;3.63;3.03;;;34.50;30.70;;;;;;6247292;23;20824;-47
2022/08/23 11:29:06;;;;;;;3.53;3.23;;;34.10;31.00;;;;;;6248898;23;20379;-50
2022/08/23 11:31:54;;;;;;;3.90;3.17;;;33.80;31.00;;;;;;6248765;23;20365;-46
2022/08/23 11:34:22;;;;;;;4.30;3.60;;;33.90;31.30;;;;;;6246844;22;20685;-49
2022/08/23 11:37:18;;;;;;;4.67;3.00;;;34.60;30.70;;;;;;6247361;23;20379;-49
2022/08/23 11:39:56;;;;;;;2.70;2.50;;;35.40;30.00;;;;;;6245813;23;20337;-45
2022/08/23 11:42:24;;;;;;;3.33;3.10;;;35.50;29.60;;;;;;6247829;23;20348;-49
2022/08/23 11:44:50;;;;;;;3.80;3.40;;;35.10;30.10;;;;;;6246800;23;20362;-45
2022/08/23 11:47:29;;;;;;;3.47;3.10;;;34.70;29.50;;;;;;6246894;23;20863;-47
2022/08/23 11:50:25;;;;;;;3.47;3.10;;;34.40;30.50;;;;;;6244201;23;20826;-48
2022/08/23 11:53:07;;;;;;;3.10;2.77;;;35.00;29.90;;;;;;6245693;23;20442;-46
2022/08/23 11:55:56;;;;;;;3.80;2.60;;;35.10;29.60;;;;;;6246056;23;20803;-49
2022/08/23 11:58:45;;;;;;;3.17;2.80;;;35.70;30.20;;;;;;6246129;23;20442;-46
2022/08/23 12:01:14;;;;;;;4.30;3.10;;;36.00;29.00;;;;;;6247303;23;20379;-47
2022/08/23 12:03:59;;;;;;;8.43;3.20;;;36.10;29.20;;;;;;6244444;23;20357;-47
2022/08/23 12:06:47;;;;;;;3.33;3.03;;;36.10;29.10;;;;;;6243260;23;20379;-47
2022/08/23 12:09:21;;;;;;;4.70;3.20;;;35.40;29.10;;;;;;6241750;23;20655;-47
2022/08/23 12:11:55;;;;;;;4.27;3.17;;;35.10;29.60;;;;;;6244456;23;20422;-46
2022/08/23 12:14:30;;;;;;;2.90;2.60;;;35.60;29.80;;;;;;6244947;23;20456;-46
2022/08/23 12:17:01;;;;;;;2.60;2.40;;;36.40;29.30;;;;;;6245526;23;20497;-48
2022/08/23 12:19:37;;;;;;;4.03;3.23;;;37.40;29.20;;;;;;6248015;22;20368;-48
2022/08/23 12:22:13;;;;;;;3.70;2.70;;;38.30;28.20;;;;;;6245633;23;20870;-48
2022/08/23 12:24:52;;;;;;;4.80;2.80;;;38.70;27.90;;;;;;6245826;23;20540;-51
2022/08/23 12:27:30;;;;;;;3.13;2.90;;;38.80;27.40;;;;;;6244013;23;20385;-49
2022/08/23 12:30:07;;;;;;;3.20;2.90;;;38.00;27.30;;;;;;6245083;23;20677;-52
2022/08/23 12:32:38;;;;;;;2.90;2.60;;;37.20;27.90;;;;;;6245123;22;20396;-50
2022/08/23 12:35:18;;;;;;;2.97;2.70;;;36.40;28.20;;;;;;6244412;23;20448;-49
2022/08/23 12:38:00;;;;;;;4.03;2.93;;;35.90;28.40;;;;;;6245856;23;20413;-49
2022/08/23 12:40:38;;;;;;;3.07;2.77;;;35.50;28.80;;;;;;6246839;23;20387;-47
2022/08/23 12:43:17;;;;;;;3.73;3.00;;;35.20;29.00;;;;;;6244227;23;20387;-51
2022/08/23 12:45:48;;;;;;;3.07;2.87;;;35.00;29.10;;;;;;6244410;23;20731;-50
2022/08/23 12:48:18;;;;;;;4.20;3.80;;;34.60;29.60;;;;;;6242008;23;20441;-47
2022/08/23 12:50:51;;;;;;;3.90;3.10;;;34.30;29.20;;;;;;6244246;23;20432;-48
2022/08/23 12:53:32;;;;;;;2.93;2.70;;;33.80;29.60;;;;;;6243961;23;20410;-49
2022/08/23 12:56:02;;;;;;;3.90;3.23;;;33.90;29.80;;;;;;6244222;23;20341;-45
2022/08/23 12:58:30;;;;;;;3.50;2.70;;;33.20;29.80;;;;;;6244731;23;20776;-49
2022/08/23 13:00:58;;;;;;;3.53;3.20;;;33.00;30.10;;;;;;6245263;23;20481;-46
2022/08/23 13:03:31;;;;;;;3.60;2.93;;;33.50;30.10;;;;;;6242918;23;20383;-46
2022/08/23 13:06:01;;;;;;;3.10;2.80;;;34.50;30.20;;;;;;6246579;23;20427;-45
2022/08/23 13:08:36;;;;;;;2.97;2.77;;;35.70;29.70;;;;;;6248949;23;20371;-46
2022/08/23 13:11:03;;;;;;;3.40;3.20;;;37.10;28.80;;;;;;6249333;23;20383;-46
2022/08/23 13:13:30;;;;;;;2.83;2.63;;;37.90;28.10;;;;;;6246847;23;20333;-45
2022/08/23 13:15:58;;;;;;;3.20;2.77;;;38.30;27.80;;;;;;6218709;23;20435;-47
2022/08/23 13:18:32;;;;;;;3.47;2.97;;;38.60;27.70;;;;;;6245026;23;20758;-49